createdAt,value
2022-10-24T00:01:12.671Z,20.70
2022-10-24T00:06:16.100Z,20.70
2022-10-24T00:11:22.938Z,20.70
2022-10-24T00:16:27.168Z,20.70
2022-10-24T00:21:30.251Z,20.70
2022-10-24T00:26:35.104Z,20.70
2022-10-24T00:31:38.123Z,20.70
2022-10-24T00:36:41.140Z,20.70
2022-10-24T00:41:45.468Z,20.70
2022-10-24T00:46:53.075Z,20.70
2022-10-24T00:52:16.787Z,20.70
2022-10-24T00:57:26.227Z,20.70
2022-10-24T01:02:29.198Z,20.70
2022-10-24T01:07:47.676Z,20.70
2022-10-24T01:12:59.506Z,20.70
2022-10-24T01:18:08.114Z,20.70
2022-10-24T01:23:37.343Z,20.70
2022-10-24T01:28:49.388Z,20.70
2022-10-24T01:33:58.140Z,20.60
2022-10-24T01:39:06.992Z,20.60
2022-10-24T01:44:14.659Z,20.60
2022-10-24T01:49:21.270Z,20.60
2022-10-24T01:54:24.603Z,20.60
2022-10-24T01:59:45.320Z,20.60
2022-10-24T02:04:56.115Z,20.60
2022-10-24T02:10:03.351Z,20.60
2022-10-24T02:15:11.935Z,20.60
2022-10-24T02:20:16.995Z,20.60
2022-10-24T02:25:26.185Z,20.60
2022-10-24T02:30:30.236Z,20.60
2022-10-24T02:35:37.758Z,20.60
2022-10-24T02:40:41.975Z,20.60
2022-10-24T02:45:45.301Z,20.60
2022-10-24T02:55:54.174Z,20.60
2022-10-24T03:00:57.166Z,20.60
2022-10-24T03:06:01.573Z,20.60
2022-10-24T03:11:05.025Z,20.60
2022-10-24T03:16:11.598Z,20.60
2022-10-24T03:21:18.423Z,20.50
2022-10-24T03:26:21.394Z,20.60
2022-10-24T03:31:24.399Z,20.60
2022-10-24T03:36:28.732Z,20.50
2022-10-24T03:41:31.807Z,20.60
2022-10-24T03:46:34.757Z,20.50
2022-10-24T03:51:39.093Z,20.60
2022-10-24T03:56:42.158Z,20.50
2022-10-24T04:01:45.310Z,20.60
2022-10-24T04:06:49.674Z,20.60
2022-10-24T04:11:53.447Z,20.50
2022-10-24T04:16:56.401Z,20.50
2022-10-24T04:22:00.865Z,20.50
2022-10-24T04:27:03.869Z,20.50
2022-10-24T04:32:07.134Z,20.50
2022-10-24T04:37:11.511Z,20.50
2022-10-24T04:42:14.504Z,20.50
2022-10-24T04:47:17.851Z,20.50
2022-10-24T04:52:22.236Z,20.50
2022-10-24T04:57:25.253Z,20.50
2022-10-24T05:02:28.478Z,20.50
2022-10-24T05:07:32.932Z,20.50
2022-10-24T05:12:35.979Z,20.50
2022-10-24T05:17:38.974Z,20.50
2022-10-24T05:22:43.540Z,20.50
2022-10-24T05:27:46.726Z,20.50
2022-10-24T05:32:49.824Z,20.50
2022-10-24T05:37:54.225Z,20.50
2022-10-24T05:42:57.399Z,20.50
2022-10-24T05:48:00.548Z,20.50
2022-10-24T05:53:05.444Z,20.50
2022-10-24T05:58:08.688Z,20.50
2022-10-24T06:03:12.855Z,20.50
2022-10-24T06:08:17.295Z,20.50
2022-10-24T06:13:20.408Z,20.50
2022-10-24T06:18:23.463Z,20.50
2022-10-24T06:23:27.899Z,20.50
2022-10-24T06:28:30.944Z,20.50
2022-10-24T06:33:33.940Z,20.50
2022-10-24T06:38:38.589Z,20.50
2022-10-24T06:43:42.532Z,20.50
2022-10-24T06:48:45.879Z,20.50
2022-10-24T06:53:50.264Z,20.50
2022-10-24T06:58:53.469Z,20.50
2022-10-24T07:03:56.608Z,20.50
2022-10-24T07:09:03.164Z,20.50
2022-10-24T07:14:09.136Z,20.50
2022-10-24T07:19:12.742Z,20.50
2022-10-24T07:24:17.222Z,20.50
2022-10-24T07:29:20.253Z,20.50
2022-10-24T07:34:23.261Z,20.50
2022-10-24T07:39:27.677Z,20.50
2022-10-24T07:44:30.635Z,20.50
2022-10-24T07:49:34.039Z,20.50
2022-10-24T07:54:38.445Z,20.50
2022-10-24T07:59:42.719Z,20.50
2022-10-24T08:04:46.266Z,20.50
2022-10-24T08:09:51.270Z,20.50
2022-10-24T08:14:55.862Z,20.50
2022-10-24T08:19:59.018Z,20.50
2022-10-24T08:25:05.986Z,20.60
2022-10-24T08:30:10.368Z,20.60
2022-10-24T08:35:17.807Z,20.60
2022-10-24T08:40:27.829Z,20.60
2022-10-24T08:45:38.576Z,20.60
2022-10-24T08:50:47.556Z,20.60
2022-10-24T08:55:54.459Z,20.60
2022-10-24T09:01:01.339Z,20.60
2022-10-24T09:06:12.015Z,20.60
2022-10-24T09:11:21.808Z,20.60
2022-10-24T09:16:27.642Z,20.60
2022-10-24T09:21:30.789Z,20.60
2022-10-24T09:26:37.596Z,20.60
2022-10-24T09:31:41.787Z,20.60
2022-10-24T09:36:46.069Z,20.60
2022-10-24T09:41:50.668Z,20.60
2022-10-24T09:46:53.781Z,20.60
2022-10-24T09:52:05.793Z,20.60
2022-10-24T09:57:17.274Z,20.60
2022-10-24T10:02:26.523Z,20.60
2022-10-24T10:07:32.016Z,20.60
2022-10-24T10:12:38.971Z,20.60
2022-10-24T10:17:51.137Z,20.60
2022-10-24T10:22:54.149Z,20.60
2022-10-24T10:28:02.352Z,20.60
2022-10-24T10:33:18.677Z,20.60
2022-10-24T10:38:44.843Z,20.60
2022-10-24T10:43:58.452Z,20.60
2022-10-24T10:49:10.354Z,20.60
2022-10-24T10:54:35.041Z,20.60
2022-10-24T10:59:49.093Z,20.60
2022-10-24T11:04:59.480Z,20.60
2022-10-24T11:10:07.188Z,20.60
2022-10-24T11:20:31.051Z,20.60
2022-10-24T11:25:38.407Z,20.60
2022-10-24T11:30:51.948Z,20.60
2022-10-24T11:36:03.871Z,20.60
2022-10-24T11:41:27.566Z,20.60
2022-10-24T11:46:36.356Z,20.60
2022-10-24T11:51:44.169Z,20.60
2022-10-24T11:56:50.935Z,20.60
2022-10-24T12:02:31.491Z,20.60
2022-10-24T12:08:09.982Z,20.60
2022-10-24T12:13:29.872Z,20.60
2022-10-24T12:18:37.138Z,20.60
2022-10-24T12:23:42.621Z,20.60
2022-10-24T12:28:55.408Z,20.60
2022-10-24T12:34:38.003Z,20.60
2022-10-24T12:39:47.379Z,20.60
2022-10-24T12:44:54.453Z,20.60
2022-10-24T12:49:58.718Z,20.60
2022-10-24T12:55:03.491Z,20.60
2022-10-24T13:00:24.398Z,20.60
2022-10-24T13:05:42.817Z,20.60
2022-10-24T13:10:57.090Z,20.60
2022-10-24T13:16:07.966Z,20.60
2022-10-24T13:21:27.014Z,20.60
2022-10-24T13:26:40.263Z,20.60
2022-10-24T13:31:49.559Z,20.60
2022-10-24T13:37:00.242Z,20.60
2022-10-24T13:42:07.736Z,20.60
2022-10-24T13:47:20.027Z,20.60
2022-10-24T13:52:27.994Z,20.60
2022-10-24T13:57:36.011Z,20.60
2022-10-24T14:02:42.913Z,20.60
2022-10-24T14:07:46.202Z,20.60
2022-10-24T14:12:56.932Z,20.60
2022-10-24T14:18:02.569Z,20.60
2022-10-24T14:23:23.323Z,20.60
2022-10-24T14:28:30.321Z,20.60
2022-10-24T14:33:42.460Z,20.60
2022-10-24T14:38:45.680Z,20.60
2022-10-24T14:43:50.216Z,20.60
2022-10-24T14:48:54.674Z,20.60
2022-10-24T14:53:58.785Z,20.60
2022-10-24T14:59:06.530Z,20.60
2022-10-24T15:04:24.377Z,20.60
2022-10-24T15:09:27.384Z,20.60
2022-10-24T15:14:39.314Z,20.60
2022-10-24T15:19:42.414Z,20.60
2022-10-24T15:24:51.585Z,20.60
2022-10-24T15:29:55.995Z,20.60
2022-10-24T15:34:59.032Z,20.60
2022-10-24T15:40:04.946Z,20.50
2022-10-24T15:45:14.622Z,20.50
2022-10-24T15:50:19.251Z,20.50
2022-10-24T15:55:24.806Z,20.50
2022-10-24T16:00:29.261Z,20.50
2022-10-24T16:05:37.737Z,20.50
2022-10-24T16:10:40.775Z,20.50
2022-10-24T16:15:45.501Z,20.50
2022-10-24T16:20:48.610Z,20.50
2022-10-24T16:25:51.563Z,20.50
2022-10-24T16:30:56.206Z,20.50
2022-10-24T16:35:59.255Z,20.50
2022-10-24T16:41:02.289Z,20.50
2022-10-24T16:46:06.923Z,20.50
2022-10-24T16:51:11.530Z,20.40
2022-10-24T16:56:15.743Z,20.50
2022-10-24T17:01:22.245Z,20.40
2022-10-24T17:06:25.362Z,20.50
2022-10-24T17:11:45.844Z,20.50
2022-10-24T17:16:50.771Z,20.50
2022-10-24T17:21:54.081Z,20.50
2022-10-24T17:26:57.651Z,20.40
2022-10-24T17:32:02.445Z,20.50
2022-10-24T17:37:08.912Z,20.40
2022-10-24T17:42:12.086Z,20.40
2022-10-24T17:47:17.210Z,20.40
2022-10-24T17:52:23.829Z,20.40
2022-10-24T17:57:27.880Z,20.40
2022-10-24T18:02:33.285Z,20.40
2022-10-24T18:07:37.213Z,20.40
2022-10-24T18:12:41.733Z,20.40
2022-10-24T18:17:47.065Z,20.40
2022-10-24T18:22:50.291Z,20.40
2022-10-24T18:27:53.349Z,20.40
2022-10-24T18:32:57.685Z,20.40
2022-10-24T18:38:02.095Z,20.40
2022-10-24T18:43:06.974Z,20.40
2022-10-24T18:48:12.329Z,20.40
2022-10-24T18:53:23.088Z,20.40
2022-10-24T18:58:26.522Z,20.40
2022-10-24T19:03:37.072Z,20.40
2022-10-24T19:08:40.647Z,20.40
2022-10-24T19:13:44.946Z,20.40
2022-10-24T19:18:53.975Z,20.40
2022-10-24T19:23:57.011Z,20.40
2022-10-24T19:29:02.333Z,20.40
2022-10-24T19:34:10.798Z,20.30
2022-10-24T19:39:14.111Z,20.30
2022-10-24T19:44:17.111Z,20.30
2022-10-24T19:49:21.415Z,20.30
2022-10-24T19:54:24.473Z,20.30
2022-10-24T19:59:31.773Z,20.30
2022-10-24T20:04:39.978Z,20.30
2022-10-24T20:09:43.105Z,20.30
2022-10-24T20:14:46.126Z,20.30
2022-10-24T20:19:50.498Z,20.30
2022-10-24T20:24:53.467Z,20.20
2022-10-24T20:29:56.516Z,20.30
2022-10-24T20:35:00.880Z,20.20
2022-10-24T20:40:03.910Z,20.20
2022-10-24T20:45:07.927Z,20.20
2022-10-24T20:50:12.818Z,20.20
2022-10-24T20:55:25.269Z,20.20
2022-10-24T21:00:38.935Z,20.20
2022-10-24T21:05:43.345Z,20.20
2022-10-24T21:10:46.343Z,20.20
2022-10-24T21:15:49.387Z,20.20
2022-10-24T21:20:53.758Z,20.20
2022-10-24T21:26:03.098Z,20.20
2022-10-24T21:31:06.903Z,20.10
2022-10-24T21:36:13.547Z,20.10
2022-10-24T21:41:16.902Z,20.10
2022-10-24T21:46:21.784Z,20.10
2022-10-24T21:51:27.816Z,20.10
2022-10-24T21:56:33.208Z,20.10
2022-10-24T22:01:38.019Z,20.10
2022-10-24T22:06:43.074Z,20.10
2022-10-24T22:11:46.540Z,20.10
2022-10-24T22:16:49.535Z,20.10
2022-10-24T22:21:53.943Z,20.10
2022-10-24T22:26:56.988Z,20.10
2022-10-24T22:32:00.517Z,20.10
2022-10-24T22:37:16.458Z,20.10
2022-10-24T22:42:20.549Z,20.10
2022-10-24T22:47:53.471Z,20.10
2022-10-24T22:52:58.533Z,20.10
2022-10-24T22:58:02.118Z,20.00
2022-10-24T23:03:11.775Z,20.10
2022-10-24T23:08:27.899Z,20.00
2022-10-24T23:13:31.511Z,20.00
2022-10-24T23:18:35.069Z,20.00
2022-10-24T23:23:39.973Z,20.00
2022-10-24T23:28:51.294Z,20.00
2022-10-24T23:33:55.022Z,20.00
2022-10-24T23:39:00.209Z,20.00
2022-10-24T23:44:03.715Z,20.00
2022-10-24T23:49:18.815Z,20.00
2022-10-24T23:54:27.082Z,20.00
2022-10-24T23:59:30.074Z,20.00
